Time;durP1;ratioP1;P1;durP2;ratioP2;P2;SDS_P1;SDS_P2;PMS_P1;PMS_P2;Temp;Humidity;BMP_temperature;BMP_pressure;BME280_temperature;BME280_humidity;BME280_pressure;Samples;Min_cycle;Max_cycle;Signal;HPM_P1;HPM_P2
2023/04/09 00:00:35;;;;;;;47.35;25.52;;;3.00;99.90;;;;;;5082675;28;20572;-57
2023/04/09 00:03:01;;;;;;;54.72;25.83;;;2.90;99.90;;;;;;5085918;28;20487;-58
2023/04/09 00:05:26;;;;;;;45.10;24.88;;;2.90;99.90;;;;;;5076230;28;20043;-58
2023/04/09 00:07:52;;;;;;;49.50;25.58;;;2.80;99.90;;;;;;5079311;28;20088;-58
2023/04/09 00:10:18;;;;;;;45.90;24.77;;;2.80;99.90;;;;;;5089160;28;20480;-57
2023/04/09 00:12:43;;;;;;;40.30;22.45;;;2.80;99.90;;;;;;5069384;28;20044;-58
2023/04/09 00:15:09;;;;;;;52.00;25.17;;;2.70;99.90;;;;;;5088862;28;20627;-58
2023/04/09 00:17:35;;;;;;;46.75;24.40;;;2.60;99.90;;;;;;5068033;28;20025;-59
2023/04/09 00:20:00;;;;;;;48.92;24.00;;;2.60;99.90;;;;;;5086703;28;20546;-58
2023/04/09 00:22:26;;;;;;;49.25;24.05;;;2.60;99.90;;;;;;5086651;28;20047;-57
2023/04/09 00:24:51;;;;;;;39.53;20.45;;;2.50;99.90;;;;;;5077553;28;20028;-58
2023/04/09 00:27:17;;;;;;;51.05;24.85;;;2.50;99.90;;;;;;5079716;28;20039;-57
2023/04/09 00:29:42;;;;;;;48.65;25.45;;;2.40;99.90;;;;;;5086804;28;20109;-56
2023/04/09 00:32:08;;;;;;;47.70;24.38;;;2.40;99.90;;;;;;5089789;28;20028;-56
2023/04/09 00:34:34;;;;;;;51.28;25.50;;;2.30;99.90;;;;;;5077514;28;20043;-57
2023/04/09 00:36:59;;;;;;;51.67;26.13;;;2.30;99.90;;;;;;5090005;28;20043;-58
2023/04/09 00:39:25;;;;;;;53.75;25.15;;;2.20;99.90;;;;;;5077694;28;20027;-57
2023/04/09 00:41:58;;;;;;;42.50;22.60;;;2.20;99.90;;;;;;5069564;28;20036;-57
2023/04/09 00:44:24;;;;;;;47.35;25.33;;;2.10;99.90;;;;;;5066262;28;20054;-56
2023/04/09 00:46:50;;;;;;;51.47;25.35;;;2.10;99.90;;;;;;5069572;28;20484;-58
2023/04/09 00:49:16;;;;;;;51.97;24.45;;;2.10;99.90;;;;;;5079675;28;20098;-58
2023/04/09 00:51:43;;;;;;;54.70;26.77;;;2.00;99.90;;;;;;5089465;28;20032;-58
2023/04/09 00:54:09;;;;;;;42.88;21.92;;;2.00;99.90;;;;;;5075356;28;20527;-58
2023/04/09 00:56:35;;;;;;;58.55;27.02;;;1.90;99.90;;;;;;5090329;28;20031;-58
2023/04/09 00:59:01;;;;;;;54.10;25.55;;;1.90;99.90;;;;;;5074257;28;20532;-57
2023/04/09 01:01:27;;;;;;;50.15;25.58;;;1.90;99.90;;;;;;5088896;28;20032;-58
2023/04/09 01:03:52;;;;;;;47.80;23.30;;;1.80;99.90;;;;;;5072903;28;20059;-57
2023/04/09 01:06:36;;;;;;;52.00;25.33;;;1.80;99.90;;;;;;5082265;28;20036;-57
2023/04/09 01:09:09;;;;;;;48.15;24.13;;;1.70;99.90;;;;;;5074493;28;20024;-58
2023/04/09 01:12:05;;;;;;;51.75;25.38;;;1.70;99.90;;;;;;5049621;28;20073;-56
2023/04/09 01:14:38;;;;;;;36.83;18.58;;;1.70;99.90;;;;;;5079330;28;20408;-57
2023/04/09 01:17:15;;;;;;;49.58;23.70;;;1.60;99.90;;;;;;5049463;28;20326;-58
2023/04/09 01:19:57;;;;;;;43.78;22.65;;;1.60;99.90;;;;;;5049505;28;20037;-57
2023/04/09 01:22:47;;;;;;;50.72;25.15;;;1.50;99.90;;;;;;5051049;28;20610;-57
2023/04/09 01:25:43;;;;;;;45.05;23.25;;;1.50;99.90;;;;;;5089777;28;20044;-57
2023/04/09 01:28:26;;;;;;;53.80;24.45;;;1.40;99.90;;;;;;5067254;28;20864;-57
2023/04/09 01:31:01;;;;;;;45.88;23.63;;;1.40;99.90;;;;;;5049226;28;20036;-55
2023/04/09 01:33:29;;;;;;;51.65;25.30;;;1.30;99.90;;;;;;5087249;28;20114;-58
2023/04/09 01:35:56;;;;;;;52.47;25.17;;;1.30;99.90;;;;;;5069203;28;20177;-57
2023/04/09 01:38:22;;;;;;;48.97;23.67;;;1.30;99.90;;;;;;5086745;28;20564;-58
2023/04/09 01:40:49;;;;;;;45.10;21.75;;;1.30;99.90;;;;;;5069595;28;20032;-58
2023/04/09 01:43:15;;;;;;;57.00;25.20;;;1.20;99.90;;;;;;5086906;28;20534;-58
2023/04/09 01:45:43;;;;;;;53.47;24.40;;;1.20;99.90;;;;;;5069458;28;20484;-57
2023/04/09 01:48:09;;;;;;;49.67;24.90;;;1.20;99.90;;;;;;5086756;28;20093;-57
2023/04/09 01:50:35;;;;;;;56.25;25.50;;;1.10;99.90;;;;;;5069306;28;20112;-58
2023/04/09 01:53:01;;;;;;;55.50;26.38;;;1.10;99.90;;;;;;5086487;28;20099;-58
2023/04/09 01:55:26;;;;;;;57.72;25.90;;;1.10;99.90;;;;;;5089255;28;20038;-56
2023/04/09 01:57:52;;;;;;;44.95;22.23;;;1.00;99.90;;;;;;5072847;28;20399;-56
2023/04/09 02:00:18;;;;;;;49.67;25.25;;;1.00;99.90;;;;;;5089045;28;20032;-58
2023/04/09 02:03:06;;;;;;;55.45;25.50;;;1.00;99.90;;;;;;5071803;28;20475;-56
2023/04/09 02:05:37;;;;;;;46.22;23.15;;;1.00;99.90;;;;;;5059697;28;20041;-55
2023/04/09 02:08:05;;;;;;;51.50;25.27;;;0.90;99.90;;;;;;5060993;28;20036;-58
2023/04/09 02:10:34;;;;;;;55.13;24.02;;;0.90;99.90;;;;;;5088908;28;20036;-57
2023/04/09 02:13:02;;;;;;;56.25;25.45;;;0.90;99.90;;;;;;5086738;28;20047;-57
2023/04/09 02:15:29;;;;;;;48.42;22.90;;;0.80;99.90;;;;;;5088736;28;20400;-57
2023/04/09 02:17:55;;;;;;;49.80;23.50;;;0.80;99.90;;;;;;5072897;28;20024;-58
2023/04/09 02:20:20;;;;;;;62.13;25.83;;;0.80;99.90;;;;;;5089114;28;20024;-57
2023/04/09 02:22:46;;;;;;;50.67;24.33;;;0.70;99.90;;;;;;5071752;28;20028;-57
2023/04/09 02:25:12;;;;;;;53.80;24.77;;;0.70;99.90;;;;;;5088790;28;20038;-57
2023/04/09 02:27:37;;;;;;;56.38;24.27;;;0.70;99.90;;;;;;5070645;28;20102;-57
2023/04/09 02:30:03;;;;;;;51.55;23.75;;;0.60;99.90;;;;;;5088538;28;20115;-57
2023/04/09 02:32:29;;;;;;;54.33;24.48;;;0.60;99.90;;;;;;5069425;28;20045;-57
2023/04/09 02:34:54;;;;;;;46.40;21.63;;;0.60;99.90;;;;;;5088533;28;20381;-57
2023/04/09 02:37:19;;;;;;;37.75;18.92;;;0.60;99.90;;;;;;5066838;28;20031;-58
2023/04/09 02:39:45;;;;;;;34.97;17.85;;;0.50;99.90;;;;;;5088652;28;20036;-56
2023/04/09 02:42:10;;;;;;;42.92;22.58;;;0.50;99.90;;;;;;5067330;28;20033;-57
2023/04/09 02:44:36;;;;;;;50.42;26.73;;;0.50;99.90;;;;;;5088446;28;20535;-57
2023/04/09 02:47:02;;;;;;;47.45;25.80;;;0.50;99.90;;;;;;5068666;28;20035;-58
2023/04/09 02:49:27;;;;;;;42.45;23.02;;;0.40;99.90;;;;;;5085797;28;20074;-55
2023/04/09 02:51:53;;;;;;;45.00;23.45;;;0.40;99.90;;;;;;5088296;28;20703;-56
2023/04/09 02:54:18;;;;;;;44.40;22.27;;;0.40;99.90;;;;;;5066958;28;20032;-56
2023/04/09 02:56:44;;;;;;;40.65;20.98;;;0.40;99.90;;;;;;5086441;28;20067;-56
2023/04/09 02:59:09;;;;;;;44.65;22.13;;;0.40;99.90;;;;;;5066755;28;20032;-57
2023/04/09 03:01:35;;;;;;;40.30;22.27;;;0.40;99.90;;;;;;5087466;28;20020;-57
2023/04/09 03:04:01;;;;;;;36.72;19.05;;;0.30;99.90;;;;;;5066837;28;20449;-58
2023/04/09 03:06:26;;;;;;;36.75;18.73;;;0.40;99.90;;;;;;5081481;28;20038;-57
2023/04/09 03:08:52;;;;;;;33.25;17.05;;;0.40;99.90;;;;;;5065258;28;20365;-57
2023/04/09 03:11:17;;;;;;;37.65;18.15;;;0.40;99.90;;;;;;5089656;28;20457;-57
2023/04/09 03:13:43;;;;;;;38.80;19.02;;;0.50;99.90;;;;;;5071018;28;20028;-57
2023/04/09 03:16:09;;;;;;;41.97;18.67;;;0.50;99.90;;;;;;5091703;28;20091;-55
2023/04/09 03:18:35;;;;;;;45.97;20.05;;;0.60;99.90;;;;;;5070523;28;20020;-55
2023/04/09 03:21:05;;;;;;;37.67;17.27;;;0.70;99.90;;;;;;5091249;28;20234;-56
2023/04/09 03:23:33;;;;;;;45.72;19.25;;;0.80;99.90;;;;;;5069813;28;20021;-57
2023/04/09 03:26:03;;;;;;;46.15;20.75;;;0.90;99.90;;;;;;5091620;28;20103;-57
2023/04/09 03:28:29;;;;;;;52.72;20.88;;;1.00;99.90;;;;;;5069759;28;20032;-56
2023/04/09 03:30:54;;;;;;;58.65;22.25;;;1.10;99.90;;;;;;5091280;28;20088;-57
2023/04/09 03:33:20;;;;;;;46.78;19.80;;;1.20;99.90;;;;;;5078961;28;20071;-54
2023/04/09 03:35:45;;;;;;;53.45;20.35;;;1.30;99.90;;;;;;5072177;28;20039;-56
2023/04/09 03:38:11;;;;;;;47.58;18.67;;;1.30;99.90;;;;;;5089269;28;20036;-54
2023/04/09 03:40:36;;;;;;;60.38;22.05;;;1.40;99.90;;;;;;5091894;28;20047;-55
2023/04/09 03:43:03;;;;;;;53.47;21.77;;;1.50;99.90;;;;;;5068918;28;20078;-52
2023/04/09 03:45:28;;;;;;;50.45;19.67;;;1.50;99.90;;;;;;5091206;28;20035;-57
2023/04/09 03:47:54;;;;;;;46.13;18.52;;;1.60;99.90;;;;;;5070135;28;20040;-55
2023/04/09 03:50:19;;;;;;;64.72;21.00;;;1.60;99.90;;;;;;5090924;28;20495;-57
2023/04/09 03:52:45;;;;;;;51.75;19.20;;;1.70;99.90;;;;;;5070409;28;20050;-53
2023/04/09 03:55:10;;;;;;;56.78;20.40;;;1.80;99.90;;;;;;5090770;28;20039;-56
2023/04/09 03:57:36;;;;;;;80.72;21.85;;;1.80;99.90;;;;;;5070314;28;20052;-53
2023/04/09 04:00:02;;;;;;;61.15;22.05;;;1.90;99.90;;;;;;5090736;28;20042;-57
2023/04/09 04:02:32;;;;;;;51.60;21.00;;;1.90;99.90;;;;;;5080850;28;20020;-56
2023/04/09 04:05:00;;;;;;;75.40;21.20;;;1.90;99.90;;;;;;5073871;28;20091;-55
2023/04/09 04:07:26;;;;;;;91.85;20.17;;;2.00;99.90;;;;;;5086431;28;20035;-58
2023/04/09 04:09:51;;;;;;;73.97;23.30;;;2.10;99.90;;;;;;5070378;28;20025;-56
2023/04/09 04:12:17;;;;;;;60.83;20.70;;;2.00;99.90;;;;;;5088643;28;20043;-57
2023/04/09 04:14:42;;;;;;;69.03;23.08;;;2.10;99.90;;;;;;5071561;28;20409;-57
2023/04/09 04:17:09;;;;;;;68.93;22.88;;;2.10;99.90;;;;;;5088495;28;20433;-58
2023/04/09 04:19:34;;;;;;;58.22;22.50;;;2.10;99.90;;;;;;5071507;28;20468;-57
2023/04/09 04:22:00;;;;;;;63.72;22.50;;;2.10;99.90;;;;;;5088084;28;20016;-58
2023/04/09 04:24:25;;;;;;;63.60;20.27;;;2.20;99.90;;;;;;5091220;28;20024;-56
2023/04/09 04:26:51;;;;;;;33.90;15.13;;;2.20;99.90;;;;;;5074074;28;20024;-57
2023/04/09 04:29:16;;;;;;;73.25;22.63;;;2.20;99.90;;;;;;5091033;28;20048;-53
2023/04/09 04:31:42;;;;;;;68.55;21.08;;;2.30;99.90;;;;;;5072801;28;20102;-56
2023/04/09 04:34:07;;;;;;;49.72;19.90;;;2.30;99.90;;;;;;5075088;28;20221;-58
2023/04/09 04:36:33;;;;;;;42.70;17.33;;;2.40;99.90;;;;;;5088059;28;20035;-55
2023/04/09 04:38:58;;;;;;;43.30;18.73;;;2.50;99.90;;;;;;5090803;28;20074;-56
2023/04/09 04:41:24;;;;;;;44.00;18.77;;;2.60;99.90;;;;;;5071394;28;20024;-58
2023/04/09 04:43:49;;;;;;;43.08;18.92;;;2.60;99.90;;;;;;5090651;28;20049;-57
2023/04/09 04:46:15;;;;;;;53.55;20.40;;;2.60;99.90;;;;;;5069728;28;20070;-58
2023/04/09 04:48:40;;;;;;;68.22;20.63;;;2.70;99.90;;;;;;5090518;28;20077;-57
2023/04/09 04:51:06;;;;;;;54.30;20.08;;;2.80;99.90;;;;;;5070915;28;20033;-58
2023/04/09 04:53:31;;;;;;;55.13;19.80;;;2.90;99.90;;;;;;5088499;28;20039;-58
2023/04/09 04:55:57;;;;;;;61.20;19.83;;;2.90;99.90;;;;;;5070772;28;20033;-57
2023/04/09 04:58:23;;;;;;;55.38;20.08;;;2.90;99.90;;;;;;5086619;28;20023;-56
2023/04/09 05:00:49;;;;;;;42.25;18.20;;;3.00;99.90;;;;;;5090201;28;20032;-57
2023/04/09 05:03:15;;;;;;;60.25;19.13;;;3.10;99.90;;;;;;5068860;28;20039;-57
2023/04/09 05:05:40;;;;;;;63.53;23.17;;;3.10;99.90;;;;;;5074406;28;20693;-55
2023/04/09 05:08:06;;;;;;;52.63;21.77;;;3.20;99.90;;;;;;5087510;28;20484;-57
2023/04/09 05:10:31;;;;;;;59.55;22.63;;;3.20;99.90;;;;;;5089864;28;20039;-58
2023/04/09 05:12:57;;;;;;;52.80;20.40;;;3.30;99.90;;;;;;5067986;28;20446;-58
2023/04/09 05:15:22;;;;;;;57.42;23.13;;;3.40;99.90;;;;;;5090136;28;20047;-59
2023/04/09 05:17:48;;;;;;;53.60;21.27;;;3.40;99.90;;;;;;5068731;28;20033;-58
2023/04/09 05:20:13;;;;;;;46.47;18.60;;;3.50;99.90;;;;;;5090106;28;20024;-58
2023/04/09 05:22:39;;;;;;;61.47;21.08;;;3.60;99.90;;;;;;5089900;28;20024;-58
2023/04/09 05:25:06;;;;;;;64.53;23.48;;;3.60;99.90;;;;;;5067340;28;20032;-57
2023/04/09 05:27:31;;;;;;;55.50;22.15;;;3.70;99.90;;;;;;5087956;28;20111;-58
2023/04/09 05:29:57;;;;;;;45.80;20.95;;;3.80;99.90;;;;;;5068346;28;20099;-59
2023/04/09 05:32:22;;;;;;;51.47;21.58;;;3.80;99.90;;;;;;5087977;28;20028;-58
2023/04/09 05:34:47;;;;;;;58.20;22.27;;;3.80;99.90;;;;;;5067388;28;20159;-58
2023/04/09 05:37:13;;;;;;;49.13;22.67;;;3.80;99.90;;;;;;5089017;28;20028;-58
2023/04/09 05:39:39;;;;;;;59.00;25.42;;;3.90;99.90;;;;;;5068445;28;20162;-56
2023/04/09 05:42:04;;;;;;;49.90;22.48;;;4.00;99.90;;;;;;5089139;28;20024;-56
2023/04/09 05:44:30;;;;;;;50.63;21.20;;;4.00;99.90;;;;;;5066902;28;20632;-60
2023/04/09 05:46:56;;;;;;;77.63;23.77;;;4.10;99.90;;;;;;5070548;28;20035;-60
2023/04/09 05:49:21;;;;;;;57.28;21.55;;;4.10;99.90;;;;;;5068448;28;20036;-60
2023/04/09 05:51:47;;;;;;;43.65;18.67;;;4.20;99.90;;;;;;5086881;28;20057;-59
2023/04/09 05:54:12;;;;;;;58.17;23.48;;;4.20;99.90;;;;;;5089322;28;20031;-59
2023/04/09 05:56:38;;;;;;;39.17;18.33;;;4.20;99.90;;;;;;5067944;28;20107;-60
2023/04/09 05:59:03;;;;;;;46.28;20.10;;;4.30;99.90;;;;;;5074546;28;20099;-60
2023/04/09 06:01:29;;;;;;;50.42;22.02;;;4.40;99.90;;;;;;5066850;28;20028;-59
2023/04/09 06:03:54;;;;;;;46.38;19.80;;;4.50;99.90;;;;;;5085405;28;20078;-59
2023/04/09 06:06:20;;;;;;;48.03;22.35;;;4.60;99.90;;;;;;5066009;28;20032;-59
2023/04/09 06:08:46;;;;;;;45.13;19.70;;;4.70;99.90;;;;;;5073951;28;20043;-58
2023/04/09 06:11:11;;;;;;;52.90;22.65;;;4.80;99.90;;;;;;5086260;28;20024;-60
2023/04/09 06:13:37;;;;;;;44.42;20.45;;;4.90;99.90;;;;;;5067935;28;20033;-59
2023/04/09 06:16:04;;;;;;;42.25;19.17;;;5.00;99.90;;;;;;5085399;28;20385;-58
2023/04/09 06:18:30;;;;;;;43.08;18.40;;;5.10;99.90;;;;;;5087994;28;20111;-59
2023/04/09 06:21:06;;;;;;;43.08;19.33;;;5.20;99.90;;;;;;5066426;28;20631;-59
2023/04/09 06:23:33;;;;;;;49.30;19.92;;;5.30;99.90;;;;;;5085578;28;20111;-60
2023/04/09 06:25:59;;;;;;;36.40;15.80;;;5.40;99.90;;;;;;5065641;28;20039;-59
2023/04/09 06:28:25;;;;;;;40.20;17.27;;;5.40;99.90;;;;;;5087387;28;20282;-59
2023/04/09 06:30:52;;;;;;;41.13;18.52;;;5.50;99.90;;;;;;5066295;28;20025;-59
2023/04/09 06:33:18;;;;;;;38.83;18.17;;;5.50;99.90;;;;;;5078499;28;20052;-59
2023/04/09 06:35:43;;;;;;;36.60;17.70;;;5.60;99.90;;;;;;5083883;28;20032;-58
2023/04/09 06:38:09;;;;;;;41.30;20.73;;;5.70;99.90;;;;;;5077209;28;20037;-59
2023/04/09 06:40:37;;;;;;;39.35;18.85;;;5.70;99.90;;;;;;5085051;28;20035;-59
2023/04/09 06:43:03;;;;;;;45.45;19.85;;;5.80;99.90;;;;;;5087579;28;20024;-59
2023/04/09 06:45:30;;;;;;;48.67;20.20;;;5.80;99.90;;;;;;5067115;28;20032;-59
2023/04/09 06:47:55;;;;;;;38.03;18.27;;;5.90;99.90;;;;;;5087594;28;20281;-59
2023/04/09 06:50:21;;;;;;;28.08;16.40;;;6.00;99.90;;;;;;5072045;28;20120;-59
2023/04/09 06:52:46;;;;;;;38.28;18.42;;;6.10;99.90;;;;;;5089014;28;20550;-59
2023/04/09 06:55:12;;;;;;;39.92;19.58;;;6.10;99.90;;;;;;5072217;28;20427;-59
2023/04/09 06:57:38;;;;;;;38.05;19.70;;;6.10;99.90;;;;;;5074815;28;20016;-60
2023/04/09 07:00:04;;;;;;;32.55;17.38;;;6.10;99.90;;;;;;5089815;28;20032;-59
2023/04/09 07:02:29;;;;;;;35.10;18.70;;;6.20;99.90;;;;;;5088762;28;20086;-59
2023/04/09 07:04:55;;;;;;;39.72;19.40;;;6.30;99.90;;;;;;5086653;28;20957;-59
2023/04/09 07:07:21;;;;;;;36.80;18.48;;;6.40;99.90;;;;;;5063421;28;20048;-59
2023/04/09 07:09:47;;;;;;;30.65;16.02;;;6.40;99.90;;;;;;5088795;28;20047;-58
2023/04/09 07:12:13;;;;;;;31.92;16.65;;;6.50;99.90;;;;;;5086637;28;20492;-59
2023/04/09 07:14:38;;;;;;;37.53;20.70;;;6.70;99.90;;;;;;5074346;28;20020;-58
2023/04/09 07:17:04;;;;;;;33.05;18.67;;;6.70;99.90;;;;;;5091592;28;20081;-59
2023/04/09 07:19:29;;;;;;;35.25;19.25;;;6.70;99.90;;;;;;5075791;28;20103;-59
2023/04/09 07:21:55;;;;;;;35.03;18.30;;;6.80;99.90;;;;;;5077067;28;20056;-59
2023/04/09 07:24:20;;;;;;;26.10;15.38;;;7.00;99.90;;;;;;5080530;28;20028;-59
2023/04/09 07:26:46;;;;;;;43.95;23.00;;;7.10;99.90;;;;;;5089792;28;20043;-59
2023/04/09 07:29:11;;;;;;;38.33;21.67;;;7.00;99.90;;;;;;5092027;28;20573;-58
2023/04/09 07:31:37;;;;;;;41.63;21.90;;;6.90;99.90;;;;;;5070873;28;20033;-58
2023/04/09 07:34:02;;;;;;;33.60;18.63;;;6.80;99.90;;;;;;5091213;28;20064;-59
2023/04/09 07:36:28;;;;;;;25.70;15.85;;;7.00;99.90;;;;;;5070225;28;20056;-59
2023/04/09 07:38:53;;;;;;;31.98;18.52;;;7.10;99.90;;;;;;5091294;28;20396;-59
2023/04/09 07:41:19;;;;;;;32.65;17.45;;;7.30;99.90;;;;;;5079225;28;20039;-58
2023/04/09 07:43:45;;;;;;;27.70;16.27;;;7.40;99.90;;;;;;5072340;28;20025;-59
2023/04/09 07:46:10;;;;;;;27.13;14.57;;;7.50;99.90;;;;;;5088737;28;20032;-59
2023/04/09 07:48:36;;;;;;;29.17;16.33;;;7.70;99.90;;;;;;5091947;28;20028;-58
2023/04/09 07:51:01;;;;;;;28.85;16.02;;;7.80;99.90;;;;;;5081365;28;20051;-59
2023/04/09 07:53:27;;;;;;;30.52;16.45;;;7.90;99.90;;;;;;5091760;28;20067;-59
2023/04/09 07:55:52;;;;;;;30.00;15.50;;;8.00;99.90;;;;;;5074592;28;20052;-59
2023/04/09 07:58:18;;;;;;;28.33;15.63;;;8.10;99.90;;;;;;5091730;28;20516;-59
2023/04/09 08:00:43;;;;;;;30.02;16.90;;;8.10;99.90;;;;;;5081526;28;20023;-58
2023/04/09 08:03:09;;;;;;;33.92;19.33;;;8.00;99.90;;;;;;5091643;28;20097;-63
2023/04/09 08:05:36;;;;;;;31.40;18.70;;;8.00;99.90;;;;;;5073485;28;20518;-59
2023/04/09 08:08:02;;;;;;;33.67;19.75;;;7.80;99.90;;;;;;5089959;28;20051;-58
2023/04/09 08:10:27;;;;;;;27.48;15.60;;;7.70;99.90;;;;;;5087423;28;20074;-59
2023/04/09 08:12:53;;;;;;;28.90;14.63;;;7.60;99.90;;;;;;5088798;28;20492;-59
2023/04/09 08:15:19;;;;;;;27.92;15.88;;;7.80;99.90;;;;;;5088654;28;20063;-58
2023/04/09 08:17:44;;;;;;;27.40;16.60;;;7.90;99.90;;;;;;5090042;28;20030;-58
2023/04/09 08:20:10;;;;;;;30.55;18.08;;;7.90;99.90;;;;;;5082255;28;20027;-58
2023/04/09 08:22:36;;;;;;;32.78;18.02;;;7.80;99.90;;;;;;5075339;28;20036;-59
2023/04/09 08:25:01;;;;;;;31.85;18.05;;;7.80;99.90;;;;;;5088987;28;20541;-58
2023/04/09 08:27:27;;;;;;;28.50;16.02;;;7.80;99.90;;;;;;5069790;28;20037;-59
2023/04/09 08:29:52;;;;;;;31.40;18.42;;;7.90;99.90;;;;;;5089328;28;20123;-59
2023/04/09 08:32:18;;;;;;;32.65;18.35;;;8.00;99.90;;;;;;5067698;28;20253;-58
2023/04/09 08:34:43;;;;;;;30.42;16.52;;;7.90;99.90;;;;;;5089164;28;20016;-58
2023/04/09 08:37:09;;;;;;;29.08;16.30;;;8.10;99.90;;;;;;5069370;28;20407;-59
2023/04/09 08:39:35;;;;;;;30.35;17.38;;;8.10;99.90;;;;;;5089061;28;20031;-59
2023/04/09 08:42:04;;;;;;;26.58;15.40;;;8.20;99.90;;;;;;5068860;28;20032;-59
2023/04/09 08:44:30;;;;;;;27.63;15.95;;;8.30;99.90;;;;;;5090264;28;20032;-59
2023/04/09 08:46:55;;;;;;;28.40;16.52;;;8.50;99.90;;;;;;5068999;28;20039;-58
2023/04/09 08:49:21;;;;;;;25.65;15.02;;;8.60;99.90;;;;;;5089666;28;20071;-59
2023/04/09 08:51:47;;;;;;;23.83;14.75;;;8.70;99.90;;;;;;5067575;28;20028;-58
2023/04/09 08:54:18;;;;;;;25.10;13.82;;;8.80;99.90;;;;;;5089670;28;20717;-59
2023/04/09 08:56:45;;;;;;;21.58;12.57;;;8.90;99.90;;;;;;5072830;28;20111;-58
2023/04/09 08:59:13;;;;;;;20.67;10.95;;;9.00;99.90;;;;;;5090128;28;20025;-59
2023/04/09 09:01:39;;;;;;;20.25;12.40;;;9.20;99.90;;;;;;5068474;28;20025;-59
2023/04/09 09:04:06;;;;;;;19.08;11.88;;;9.20;99.90;;;;;;5089440;28;20107;-59
2023/04/09 09:06:37;;;;;;;23.15;13.98;;;9.30;99.90;;;;;;5071927;28;20020;-59
2023/04/09 09:09:08;;;;;;;21.55;12.18;;;9.40;99.90;;;;;;5072384;28;20055;-59
2023/04/09 09:11:35;;;;;;;20.67;12.43;;;9.50;99.90;;;;;;5088218;28;20020;-59
2023/04/09 09:14:11;;;;;;;21.40;12.27;;;9.60;99.90;;;;;;5090205;28;20020;-59
2023/04/09 09:16:42;;;;;;;23.92;13.80;;;9.70;99.90;;;;;;5057784;28;20052;-59
2023/04/09 09:19:23;;;;;;;19.63;12.20;;;9.80;99.90;;;;;;5089776;28;20019;-59
2023/04/09 09:21:56;;;;;;;26.40;13.57;;;9.90;99.90;;;;;;5074788;28;20391;-58
2023/04/09 09:24:22;;;;;;;21.42;13.32;;;9.90;99.90;;;;;;5088560;28;20062;-60
2023/04/09 09:26:47;;;;;;;20.67;12.20;;;10.00;99.90;;;;;;5074316;28;20111;-58
2023/04/09 09:29:13;;;;;;;22.73;13.73;;;10.00;99.90;;;;;;5089698;28;20039;-59
2023/04/09 09:31:48;;;;;;;22.23;13.30;;;10.20;99.90;;;;;;5073266;28;20423;-59
2023/04/09 09:34:14;;;;;;;24.67;16.45;;;10.30;99.90;;;;;;5087429;28;20550;-59
2023/04/09 09:36:40;;;;;;;28.00;17.77;;;9.90;95.40;;;;;;5090092;28;20024;-59
2023/04/09 09:39:09;;;;;;;27.70;18.55;;;9.40;98.30;;;;;;5074395;28;20035;-59
2023/04/09 09:41:35;;;;;;;25.05;16.17;;;9.40;99.90;;;;;;5088473;28;20020;-59
2023/04/09 09:44:02;;;;;;;23.60;15.48;;;9.60;99.90;;;;;;5074951;28;20032;-60
2023/04/09 09:46:32;;;;;;;20.83;12.85;;;9.80;99.90;;;;;;5085757;28;20123;-59
2023/04/09 09:48:58;;;;;;;21.27;14.25;;;9.90;99.90;;;;;;5087356;28;20551;-59
2023/04/09 09:51:28;;;;;;;19.65;13.75;;;10.00;99.10;;;;;;5067977;28;20096;-59
2023/04/09 09:53:56;;;;;;;25.13;16.73;;;10.00;98.40;;;;;;5087342;28;20020;-59
2023/04/09 09:56:42;;;;;;;22.63;14.50;;;10.00;97.90;;;;;;5089328;28;20035;-59
2023/04/09 09:59:25;;;;;;;17.92;11.85;;;9.90;99.90;;;;;;5083995;28;20043;-60
2023/04/09 10:01:58;;;;;;;22.60;13.63;;;10.10;99.90;;;;;;5049200;28;20107;-59
2023/04/09 10:04:27;;;;;;;17.00;11.60;;;10.40;99.90;;;;;;5049188;28;20029;-59
2023/04/09 10:06:55;;;;;;;17.45;11.43;;;10.60;99.20;;;;;;5045911;28;20409;-58
2023/04/09 10:09:22;;;;;;;25.02;14.95;;;10.90;98.50;;;;;;5057709;28;20086;-59
2023/04/09 10:11:47;;;;;;;219.50;124.15;;;11.20;97.80;;;;;;5070130;28;20047;-58
2023/04/09 10:14:15;;;;;;;101.57;68.03;;;11.50;95.90;;;;;;5067158;28;20045;-58
2023/04/09 10:16:40;;;;;;;78.28;53.67;;;11.70;96.10;;;;;;5068627;28;20029;-59
2023/04/09 10:19:11;;;;;;;91.05;59.85;;;11.80;94.90;;;;;;5081743;28;20081;-59
2023/04/09 10:21:52;;;;;;;105.72;67.70;;;12.00;93.90;;;;;;5089036;28;20034;-59
2023/04/09 10:24:17;;;;;;;57.40;38.40;;;12.00;91.70;;;;;;5051956;28;20040;-59
2023/04/09 10:26:43;;;;;;;43.92;29.38;;;11.70;90.00;;;;;;5088992;28;20028;-58
2023/04/09 10:29:14;;;;;;;43.85;27.67;;;11.60;89.20;;;;;;5068233;28;20020;-58
2023/04/09 10:32:01;;;;;;;56.55;34.75;;;11.70;92.40;;;;;;5089058;28;20047;-58
2023/04/09 10:34:27;;;;;;;34.30;23.08;;;11.90;91.20;;;;;;5066533;28;20059;-60
2023/04/09 10:36:56;;;;;;;30.58;20.35;;;12.20;91.70;;;;;;5088063;28;20028;-58
2023/04/09 10:39:26;;;;;;;28.55;18.17;;;12.50;91.70;;;;;;5066948;28;20037;-58
2023/04/09 10:41:53;;;;;;;20.73;15.27;;;12.80;90.20;;;;;;5088558;28;20613;-58
2023/04/09 10:44:23;;;;;;;23.95;15.82;;;13.00;89.40;;;;;;5067031;28;20021;-58
2023/04/09 10:46:51;;;;;;;25.40;16.17;;;12.80;76.60;;;;;;5048532;28;20028;-57
2023/04/09 10:49:18;;;;;;;21.25;14.65;;;12.50;80.50;;;;;;5086145;28;20036;-58
2023/04/09 10:52:01;;;;;;;21.67;14.85;;;12.40;76.80;;;;;;5068939;28;20021;-56
2023/04/09 10:54:32;;;;;;;16.95;12.05;;;12.30;78.60;;;;;;5070411;28;20446;-58
2023/04/09 10:57:10;;;;;;;19.95;13.48;;;12.40;86.80;;;;;;5087270;28;20099;-58
2023/04/09 10:59:37;;;;;;;23.60;14.07;;;12.50;81.60;;;;;;5066869;28;20035;-58
2023/04/09 11:02:06;;;;;;;14.98;10.98;;;12.60;84.70;;;;;;5086785;28;20048;-58
2023/04/09 11:04:56;;;;;;;19.58;12.88;;;12.80;76.00;;;;;;5065523;28;20024;-58
2023/04/09 11:07:23;;;;;;;18.30;12.77;;;12.80;79.00;;;;;;5084331;28;20021;-58
2023/04/09 11:09:49;;;;;;;24.02;15.82;;;12.80;73.10;;;;;;5066657;28;20044;-58
2023/04/09 11:12:14;;;;;;;24.92;17.38;;;12.30;75.30;;;;;;5087833;28;20377;-59
2023/04/09 11:14:40;;;;;;;22.48;14.82;;;12.10;78.70;;;;;;5065716;28;20036;-58
2023/04/09 11:17:05;;;;;;;19.40;13.65;;;12.00;80.00;;;;;;5086323;28;20035;-58
2023/04/09 11:19:34;;;;;;;22.48;15.50;;;12.10;83.00;;;;;;5066675;28;20435;-58
2023/04/09 11:22:06;;;;;;;23.08;14.52;;;12.10;81.90;;;;;;5087653;28;20123;-58
2023/04/09 11:24:49;;;;;;;21.13;14.93;;;12.10;82.00;;;;;;5071650;28;20025;-58
2023/04/09 11:27:18;;;;;;;20.27;13.48;;;11.90;86.50;;;;;;5048354;28;20025;-58
2023/04/09 11:29:43;;;;;;;18.80;12.98;;;12.20;86.50;;;;;;5086051;28;20036;-59
2023/04/09 11:32:09;;;;;;;21.00;14.52;;;12.50;82.20;;;;;;5090188;28;20028;-58
2023/04/09 11:34:34;;;;;;;19.35;12.52;;;12.50;78.90;;;;;;5068940;28;20128;-59
2023/04/09 11:37:05;;;;;;;23.60;16.17;;;12.70;80.20;;;;;;5091210;28;20443;-59
2023/04/09 11:39:31;;;;;;;21.45;15.23;;;12.50;78.50;;;;;;5081996;28;20464;-59
2023/04/09 11:41:56;;;;;;;22.60;14.57;;;12.70;77.70;;;;;;5091731;28;20041;-59
2023/04/09 11:44:22;;;;;;;22.58;14.95;;;12.60;77.50;;;;;;5070365;28;20040;-47
2023/04/09 11:46:48;;;;;;;24.27;16.30;;;12.50;77.50;;;;;;5089612;28;20055;-48
2023/04/09 11:49:15;;;;;;;23.08;14.88;;;12.20;81.90;;;;;;5081190;28;20030;-53
2023/04/09 11:51:41;;;;;;;25.10;16.25;;;12.40;82.50;;;;;;5071845;28;20021;-53
2023/04/09 11:54:07;;;;;;;23.38;14.07;;;12.30;80.40;;;;;;5087635;28;20404;-54
2023/04/09 11:56:35;;;;;;;16.67;11.95;;;12.30;81.60;;;;;;5071914;28;20119;-56
2023/04/09 11:59:01;;;;;;;17.33;11.98;;;12.50;82.70;;;;;;5089001;28;20085;-56
2023/04/09 12:01:31;;;;;;;19.80;12.55;;;12.60;81.40;;;;;;5071697;28;20020;-54
2023/04/09 12:03:57;;;;;;;19.60;12.98;;;12.90;80.70;;;;;;5066232;28;20024;-55
2023/04/09 12:06:25;;;;;;;18.52;12.02;;;13.00;77.10;;;;;;5068780;28;20032;-54
2023/04/09 12:08:58;;;;;;;25.13;16.50;;;13.20;78.60;;;;;;5089033;28;20028;-53
2023/04/09 12:11:28;;;;;;;30.10;18.35;;;13.00;74.00;;;;;;5071055;28;20591;-56
2023/04/09 12:14:11;;;;;;;28.92;18.15;;;12.50;76.10;;;;;;5088781;28;20110;-58
2023/04/09 12:16:36;;;;;;;24.75;16.90;;;12.40;78.30;;;;;;5051368;28;20255;-56
2023/04/09 12:19:06;;;;;;;27.67;17.95;;;12.10;84.50;;;;;;5086482;28;20028;-57
2023/04/09 12:21:48;;;;;;;21.35;13.63;;;12.00;83.00;;;;;;5070951;28;20016;-57
2023/04/09 12:24:14;;;;;;;19.42;12.32;;;12.30;83.70;;;;;;5078210;28;20489;-57
2023/04/09 12:26:40;;;;;;;19.95;12.98;;;12.50;82.60;;;;;;5088648;28;20040;-55
2023/04/09 12:29:05;;;;;;;16.65;12.05;;;12.80;80.60;;;;;;5090923;28;20035;-56
2023/04/09 12:31:31;;;;;;;15.90;10.80;;;13.10;79.30;;;;;;5077828;28;20036;-56
2023/04/09 12:33:56;;;;;;;18.20;12.18;;;13.40;77.50;;;;;;5091347;28;20039;-55
2023/04/09 12:36:22;;;;;;;22.40;14.73;;;13.60;73.10;;;;;;5090350;28;20488;-56